Orbital elements of COSMOS 945
| Launched | 23 August 1977 |
| Flight ended | – |
| Launch site | Plesetsk Missile and Space Complex, Russia |
| Owner | Commonwealth of Independent States (former USSR) |
| NORAD ID | 10291 |
| Date fetched |
Epoch osculation |
Inc. [°] |
Ecc. | RA asc node [hr] |
Arg Peri. [°] |
Mean anom [°] |
Mean motion [rev/day] |
Abs. mag |
| Date fetched |
Epoch osculation |
Inc. [°] |
Ecc. | RA asc node [hr] |
Arg Peri. [°] |
Mean anom [°] |
Mean motion [rev/day] |
Abs. mag |
| 2026 May 08 17:57 | 2026 May 05 10:18:54 | 74.0216 | 0.00186 | 9.3798 | 320.5982 | 151.7802 | 12.47249 | – |
| 2026 May 07 17:58 | 2026 May 05 10:18:54 | 74.0216 | 0.00186 | 9.3798 | 320.5982 | 151.7802 | 12.47249 | – |
| 2026 May 06 17:57 | 2026 May 05 10:18:54 | 74.0216 | 0.00186 | 9.3798 | 320.5982 | 151.7802 | 12.47249 | – |
| 2026 May 05 17:57 | 2026 May 05 10:18:54 | 74.0216 | 0.00186 | 9.3798 | 320.5982 | 151.7802 | 12.47249 | – |
| 2026 May 04 17:57 | 2026 Apr 30 13:07:48 | 74.0220 | 0.00185 | 9.8103 | 327.7587 | 151.7802 | 12.47249 | – |
| 2026 May 03 17:57 | 2026 Apr 30 13:07:48 | 74.0220 | 0.00185 | 9.8103 | 327.7587 | 151.7802 | 12.47249 | – |
| 2026 May 02 17:57 | 2026 Apr 30 13:07:48 | 74.0220 | 0.00185 | 9.8103 | 327.7587 | 151.7802 | 12.47249 | – |
| 2026 May 01 17:56 | 2026 Apr 30 13:07:48 | 74.0220 | 0.00185 | 9.8103 | 327.7587 | 151.7802 | 12.47249 | – |
| 2026 Apr 30 17:56 | 2026 Apr 30 13:07:48 | 74.0220 | 0.00185 | 9.8103 | 327.7587 | 151.7802 | 12.47249 | – |
| 2026 Apr 29 17:57 | 2026 Apr 24 12:18:08 | 74.0229 | 0.00184 | 10.3423 | 336.6791 | 151.7802 | 12.47249 | – |
| 2026 Apr 28 17:56 | 2026 Apr 24 12:18:08 | 74.0229 | 0.00184 | 10.3423 | 336.6791 | 151.7802 | 12.47249 | – |
| 2026 Apr 27 17:58 | 2026 Apr 24 12:18:08 | 74.0229 | 0.00184 | 10.3423 | 336.6791 | 151.7802 | 12.47249 | – |
| 2026 Apr 26 17:58 | 2026 Apr 24 12:18:08 | 74.0229 | 0.00184 | 10.3423 | 336.6791 | 151.7802 | 12.47249 | – |
| 2026 Apr 25 17:58 | 2026 Apr 24 12:18:08 | 74.0229 | 0.00184 | 10.3423 | 336.6791 | 151.7802 | 12.47249 | – |
| 2026 Apr 24 17:59 | 2026 Apr 24 12:18:08 | 74.0229 | 0.00184 | 10.3423 | 336.6791 | 151.7802 | 12.47249 | – |
| 2026 Apr 23 17:57 | 2026 Apr 19 12:57:30 | 74.0238 | 0.00183 | 10.7807 | 344.0872 | 151.7802 | 12.47249 | – |
| 2026 Apr 22 17:57 | 2026 Apr 19 12:57:30 | 74.0238 | 0.00183 | 10.7807 | 344.0872 | 151.7802 | 12.47249 | – |
| 2026 Apr 21 17:57 | 2026 Apr 19 12:57:30 | 74.0238 | 0.00183 | 10.7807 | 344.0872 | 151.7802 | 12.47249 | – |
| 2026 Apr 20 17:57 | 2026 Apr 19 12:57:30 | 74.0238 | 0.00183 | 10.7807 | 344.0872 | 151.7802 | 12.47249 | – |
| 2026 Apr 19 17:58 | 2026 Apr 19 12:57:30 | 74.0238 | 0.00183 | 10.7807 | 344.0872 | 151.7802 | 12.47249 | – |
| 2026 Apr 18 17:56 | 2026 Apr 13 04:35:58 | 74.0247 | 0.00182 | 11.3403 | 353.6039 | 151.7802 | 12.47249 | – |
| 2026 Apr 16 17:57 | 2026 Apr 13 04:35:58 | 74.0247 | 0.00182 | 11.3403 | 353.6039 | 151.7802 | 12.47249 | – |
| 2026 Apr 14 17:57 | 2026 Apr 13 04:35:58 | 74.0247 | 0.00182 | 11.3403 | 353.6039 | 151.7802 | 12.47249 | – |
| 2026 Apr 13 17:57 | 2026 Apr 13 04:35:58 | 74.0247 | 0.00182 | 11.3403 | 353.6039 | 151.7802 | 12.47249 | – |
| 2026 Apr 12 17:57 | 2026 Apr 08 11:01:02 | 74.0255 | 0.00181 | 11.7575 | 0.7359 | 151.7802 | 12.47249 | – |
| 2026 Apr 11 17:57 | 2026 Apr 08 11:01:02 | 74.0255 | 0.00181 | 11.7575 | 0.7359 | 151.7802 | 12.47249 | – |